sensor_id;sensor_type;location;lat;lon;timestamp;temperature;humidity
4962;DHT22;2496;52.468;13.342;2022-07-23T00:01:55;19.80;99.90
4962;DHT22;2496;52.468;13.342;2022-07-23T00:04:22;19.70;99.90
4962;DHT22;2496;52.468;13.342;2022-07-23T00:06:49;19.60;99.90
4962;DHT22;2496;52.468;13.342;2022-07-23T00:09:16;19.40;99.90
4962;DHT22;2496;52.468;13.342;2022-07-23T00:11:43;19.30;99.90
4962;DHT22;2496;52.468;13.342;2022-07-23T00:14:10;19.10;99.90
4962;DHT22;2496;52.468;13.342;2022-07-23T00:16:37;19.00;99.90
4962;DHT22;2496;52.468;13.342;2022-07-23T00:19:05;19.00;99.90
4962;DHT22;2496;52.468;13.342;2022-07-23T00:21:32;19.10;99.90
4962;DHT22;2496;52.468;13.342;2022-07-23T00:23:59;19.20;99.90
4962;DHT22;2496;52.468;13.342;2022-07-23T00:26:26;19.30;99.90
4962;DHT22;2496;52.468;13.342;2022-07-23T00:28:52;19.30;99.90
4962;DHT22;2496;52.468;13.342;2022-07-23T00:31:19;19.30;99.90
4962;DHT22;2496;52.468;13.342;2022-07-23T00:33:46;19.30;99.90
4962;DHT22;2496;52.468;13.342;2022-07-23T00:36:15;19.30;99.90
4962;DHT22;2496;52.468;13.342;2022-07-23T00:38:42;19.40;99.90
4962;DHT22;2496;52.468;13.342;2022-07-23T00:41:09;19.30;99.90
4962;DHT22;2496;52.468;13.342;2022-07-23T00:43:36;19.40;99.90
4962;DHT22;2496;52.468;13.342;2022-07-23T00:46:03;19.40;99.90
4962;DHT22;2496;52.468;13.342;2022-07-23T00:48:30;19.40;99.90
4962;DHT22;2496;52.468;13.342;2022-07-23T00:50:57;19.50;99.90
4962;DHT22;2496;52.468;13.342;2022-07-23T00:53:25;19.40;99.90
4962;DHT22;2496;52.468;13.342;2022-07-23T00:55:53;19.40;99.90
4962;DHT22;2496;52.468;13.342;2022-07-23T00:58:20;19.40;99.90
4962;DHT22;2496;52.468;13.342;2022-07-23T01:00:47;19.40;99.90
4962;DHT22;2496;52.468;13.342;2022-07-23T01:03:14;19.40;99.90
4962;DHT22;2496;52.468;13.342;2022-07-23T01:05:41;19.40;99.90
4962;DHT22;2496;52.468;13.342;2022-07-23T01:08:08;19.40;99.90
4962;DHT22;2496;52.468;13.342;2022-07-23T01:10:36;19.40;99.90
4962;DHT22;2496;52.468;13.342;2022-07-23T01:13:05;19.40;99.90
4962;DHT22;2496;52.468;13.342;2022-07-23T01:15:33;19.30;99.90
4962;DHT22;2496;52.468;13.342;2022-07-23T01:18:01;19.30;99.90
4962;DHT22;2496;52.468;13.342;2022-07-23T01:20:29;19.30;99.90
4962;DHT22;2496;52.468;13.342;2022-07-23T01:22:57;19.30;99.90
4962;DHT22;2496;52.468;13.342;2022-07-23T01:25:25;19.30;99.90
4962;DHT22;2496;52.468;13.342;2022-07-23T01:27:52;19.20;99.90
4962;DHT22;2496;52.468;13.342;2022-07-23T01:30:19;19.20;99.90
4962;DHT22;2496;52.468;13.342;2022-07-23T01:32:46;19.20;99.90
4962;DHT22;2496;52.468;13.342;2022-07-23T01:35:13;19.20;99.90
4962;DHT22;2496;52.468;13.342;2022-07-23T01:37:40;19.20;99.90
4962;DHT22;2496;52.468;13.342;2022-07-23T01:40:09;19.20;99.90
4962;DHT22;2496;52.468;13.342;2022-07-23T01:42:36;19.20;99.90
4962;DHT22;2496;52.468;13.342;2022-07-23T01:45:04;19.20;99.90
4962;DHT22;2496;52.468;13.342;2022-07-23T01:47:31;19.20;99.90
4962;DHT22;2496;52.468;13.342;2022-07-23T01:49:58;19.20;99.90
4962;DHT22;2496;52.468;13.342;2022-07-23T01:52:25;19.20;99.90
4962;DHT22;2496;52.468;13.342;2022-07-23T01:54:52;19.20;99.90
4962;DHT22;2496;52.468;13.342;2022-07-23T01:57:20;19.10;99.90
4962;DHT22;2496;52.468;13.342;2022-07-23T01:59:47;19.00;99.90
4962;DHT22;2496;52.468;13.342;2022-07-23T02:02:14;18.80;99.90
4962;DHT22;2496;52.468;13.342;2022-07-23T02:04:41;18.70;99.90
4962;DHT22;2496;52.468;13.342;2022-07-23T02:07:08;18.70;99.90
4962;DHT22;2496;52.468;13.342;2022-07-23T02:09:35;18.70;99.90
4962;DHT22;2496;52.468;13.342;2022-07-23T02:12:02;18.60;99.90
4962;DHT22;2496;52.468;13.342;2022-07-23T02:14:30;18.60;99.90
4962;DHT22;2496;52.468;13.342;2022-07-23T02:16:57;18.40;99.90
4962;DHT22;2496;52.468;13.342;2022-07-23T02:19:25;18.50;99.90
4962;DHT22;2496;52.468;13.342;2022-07-23T02:21:52;18.50;99.90
4962;DHT22;2496;52.468;13.342;2022-07-23T02:24:20;18.40;99.90
4962;DHT22;2496;52.468;13.342;2022-07-23T02:26:47;18.40;99.90
4962;DHT22;2496;52.468;13.342;2022-07-23T02:29:13;18.40;99.90
4962;DHT22;2496;52.468;13.342;2022-07-23T02:31:42;18.30;99.90
4962;DHT22;2496;52.468;13.342;2022-07-23T02:34:09;18.40;99.90
4962;DHT22;2496;52.468;13.342;2022-07-23T02:36:37;18.40;99.90
4962;DHT22;2496;52.468;13.342;2022-07-23T02:39:04;18.50;99.90
4962;DHT22;2496;52.468;13.342;2022-07-23T02:41:31;18.60;99.90
4962;DHT22;2496;52.468;13.342;2022-07-23T02:43:58;18.50;99.90
4962;DHT22;2496;52.468;13.342;2022-07-23T02:46:25;18.50;99.90
4962;DHT22;2496;52.468;13.342;2022-07-23T02:48:53;18.40;99.90
4962;DHT22;2496;52.468;13.342;2022-07-23T02:51:20;18.30;99.90
4962;DHT22;2496;52.468;13.342;2022-07-23T02:53:47;18.30;99.90
4962;DHT22;2496;52.468;13.342;2022-07-23T02:56:14;18.20;99.90
4962;DHT22;2496;52.468;13.342;2022-07-23T02:58:41;18.20;99.90
4962;DHT22;2496;52.468;13.342;2022-07-23T03:01:07;18.10;99.90
4962;DHT22;2496;52.468;13.342;2022-07-23T03:03:34;18.10;99.90
4962;DHT22;2496;52.468;13.342;2022-07-23T03:06:03;18.10;99.90
4962;DHT22;2496;52.468;13.342;2022-07-23T03:08:30;18.10;99.90
4962;DHT22;2496;52.468;13.342;2022-07-23T03:10:58;18.00;99.90
4962;DHT22;2496;52.468;13.342;2022-07-23T03:13:27;18.00;99.90
4962;DHT22;2496;52.468;13.342;2022-07-23T03:15:55;18.00;99.90
4962;DHT22;2496;52.468;13.342;2022-07-23T03:18:22;18.00;99.90
4962;DHT22;2496;52.468;13.342;2022-07-23T03:20:48;17.90;99.90
4962;DHT22;2496;52.468;13.342;2022-07-23T03:23:17;17.90;99.90
4962;DHT22;2496;52.468;13.342;2022-07-23T03:25:44;17.90;99.90
4962;DHT22;2496;52.468;13.342;2022-07-23T03:28:12;17.80;99.90
4962;DHT22;2496;52.468;13.342;2022-07-23T03:30:39;17.80;99.90
4962;DHT22;2496;52.468;13.342;2022-07-23T03:33:06;17.80;99.90
4962;DHT22;2496;52.468;13.342;2022-07-23T03:35:33;17.80;99.90
4962;DHT22;2496;52.468;13.342;2022-07-23T03:38:00;17.70;99.90
4962;DHT22;2496;52.468;13.342;2022-07-23T03:40:28;17.70;99.90
4962;DHT22;2496;52.468;13.342;2022-07-23T03:42:58;17.70;99.90
4962;DHT22;2496;52.468;13.342;2022-07-23T03:45:25;17.60;99.90
4962;DHT22;2496;52.468;13.342;2022-07-23T03:47:52;17.60;99.90
4962;DHT22;2496;52.468;13.342;2022-07-23T03:50:19;17.60;99.90
4962;DHT22;2496;52.468;13.342;2022-07-23T03:52:46;17.60;99.90
4962;DHT22;2496;52.468;13.342;2022-07-23T03:55:13;17.60;99.90
4962;DHT22;2496;52.468;13.342;2022-07-23T03:57:42;17.60;99.90
4962;DHT22;2496;52.468;13.342;2022-07-23T04:00:10;17.60;99.90
4962;DHT22;2496;52.468;13.342;2022-07-23T04:02:39;17.50;99.90
4962;DHT22;2496;52.468;13.342;2022-07-23T04:05:07;17.60;99.90
4962;DHT22;2496;52.468;13.342;2022-07-23T04:07:34;17.60;99.90
4962;DHT22;2496;52.468;13.342;2022-07-23T04:10:01;17.60;99.90
4962;DHT22;2496;52.468;13.342;2022-07-23T04:12:28;17.60;99.90
4962;DHT22;2496;52.468;13.342;2022-07-23T04:14:56;17.60;99.90
4962;DHT22;2496;52.468;13.342;2022-07-23T04:17:23;17.70;99.90
4962;DHT22;2496;52.468;13.342;2022-07-23T04:19:51;17.60;99.90
4962;DHT22;2496;52.468;13.342;2022-07-23T04:22:17;17.60;99.90
4962;DHT22;2496;52.468;13.342;2022-07-23T04:24:44;17.60;99.90
4962;DHT22;2496;52.468;13.342;2022-07-23T04:27:11;17.50;99.90
4962;DHT22;2496;52.468;13.342;2022-07-23T04:29:38;17.40;99.90
4962;DHT22;2496;52.468;13.342;2022-07-23T04:32:07;17.50;99.90
4962;DHT22;2496;52.468;13.342;2022-07-23T04:34:33;17.50;99.90
4962;DHT22;2496;52.468;13.342;2022-07-23T04:37:00;17.50;99.90
4962;DHT22;2496;52.468;13.342;2022-07-23T04:39:27;17.50;99.90
4962;DHT22;2496;52.468;13.342;2022-07-23T04:41:54;17.40;99.90
4962;DHT22;2496;52.468;13.342;2022-07-23T04:44:21;17.40;99.90
4962;DHT22;2496;52.468;13.342;2022-07-23T04:46:48;17.40;99.90
4962;DHT22;2496;52.468;13.342;2022-07-23T04:49:16;17.30;99.90
4962;DHT22;2496;52.468;13.342;2022-07-23T04:51:43;17.20;99.90
4962;DHT22;2496;52.468;13.342;2022-07-23T04:54:10;17.10;99.90
4962;DHT22;2496;52.468;13.342;2022-07-23T04:56:37;17.00;99.90
4962;DHT22;2496;52.468;13.342;2022-07-23T04:59:04;16.90;99.90
4962;DHT22;2496;52.468;13.342;2022-07-23T05:01:31;16.70;99.90
4962;DHT22;2496;52.468;13.342;2022-07-23T05:03:58;16.50;99.90
4962;DHT22;2496;52.468;13.342;2022-07-23T05:06:27;16.30;99.90
4962;DHT22;2496;52.468;13.342;2022-07-23T05:08:54;16.20;99.90
4962;DHT22;2496;52.468;13.342;2022-07-23T05:11:22;16.20;99.90
4962;DHT22;2496;52.468;13.342;2022-07-23T05:13:49;16.20;99.90
4962;DHT22;2496;52.468;13.342;2022-07-23T05:16:17;16.30;99.90
4962;DHT22;2496;52.468;13.342;2022-07-23T05:18:44;16.40;99.90
4962;DHT22;2496;52.468;13.342;2022-07-23T05:21:12;16.40;99.90
4962;DHT22;2496;52.468;13.342;2022-07-23T05:23:40;16.40;99.90
4962;DHT22;2496;52.468;13.342;2022-07-23T05:26:07;16.30;99.90
4962;DHT22;2496;52.468;13.342;2022-07-23T05:28:34;16.30;99.90
4962;DHT22;2496;52.468;13.342;2022-07-23T05:31:01;16.40;99.90
4962;DHT22;2496;52.468;13.342;2022-07-23T05:33:29;16.50;99.90
4962;DHT22;2496;52.468;13.342;2022-07-23T05:36:00;16.50;99.90
4962;DHT22;2496;52.468;13.342;2022-07-23T05:38:27;16.60;99.90
4962;DHT22;2496;52.468;13.342;2022-07-23T06:17:51;16.60;99.90
4962;DHT22;2496;52.468;13.342;2022-07-23T06:20:18;16.60;99.90
4962;DHT22;2496;52.468;13.342;2022-07-23T06:22:45;16.60;99.90
4962;DHT22;2496;52.468;13.342;2022-07-23T06:25:12;16.60;99.90
4962;DHT22;2496;52.468;13.342;2022-07-23T06:27:39;16.60;99.90
4962;DHT22;2496;52.468;13.342;2022-07-23T06:30:07;16.50;99.90
4962;DHT22;2496;52.468;13.342;2022-07-23T06:32:37;16.50;99.90
4962;DHT22;2496;52.468;13.342;2022-07-23T06:35:04;16.60;99.90
4962;DHT22;2496;52.468;13.342;2022-07-23T06:37:31;16.60;99.90
4962;DHT22;2496;52.468;13.342;2022-07-23T06:39:58;16.60;99.90
4962;DHT22;2496;52.468;13.342;2022-07-23T06:42:25;16.60;99.90
4962;DHT22;2496;52.468;13.342;2022-07-23T06:44:52;16.70;99.90
4962;DHT22;2496;52.468;13.342;2022-07-23T06:47:19;16.60;99.90
4962;DHT22;2496;52.468;13.342;2022-07-23T06:49:47;16.60;99.90
4962;DHT22;2496;52.468;13.342;2022-07-23T06:52:14;16.70;99.90
4962;DHT22;2496;52.468;13.342;2022-07-23T06:54:41;16.70;99.90
4962;DHT22;2496;52.468;13.342;2022-07-23T06:57:08;16.80;99.90
4962;DHT22;2496;52.468;13.342;2022-07-23T06:59:35;16.80;99.90
4962;DHT22;2496;52.468;13.342;2022-07-23T07:02:06;16.80;99.90
4962;DHT22;2496;52.468;13.342;2022-07-23T07:04:33;16.80;99.90
4962;DHT22;2496;52.468;13.342;2022-07-23T07:07:01;16.70;99.90
4962;DHT22;2496;52.468;13.342;2022-07-23T07:09:28;16.70;99.90
4962;DHT22;2496;52.468;13.342;2022-07-23T07:11:56;16.70;99.90
4962;DHT22;2496;52.468;13.342;2022-07-23T07:14:23;16.80;99.90
4962;DHT22;2496;52.468;13.342;2022-07-23T07:16:50;16.90;99.90
4962;DHT22;2496;52.468;13.342;2022-07-23T07:19:17;16.90;99.90
4962;DHT22;2496;52.468;13.342;2022-07-23T07:21:44;17.00;99.90
4962;DHT22;2496;52.468;13.342;2022-07-23T07:24:12;17.10;99.90
4962;DHT22;2496;52.468;13.342;2022-07-23T07:26:39;17.10;99.90
4962;DHT22;2496;52.468;13.342;2022-07-23T07:29:06;17.10;99.90
4962;DHT22;2496;52.468;13.342;2022-07-23T07:31:33;17.20;99.90
4962;DHT22;2496;52.468;13.342;2022-07-23T07:34:00;17.10;99.90
4962;DHT22;2496;52.468;13.342;2022-07-23T07:36:27;17.10;99.90
4962;DHT22;2496;52.468;13.342;2022-07-23T07:38:54;17.20;99.90
4962;DHT22;2496;52.468;13.342;2022-07-23T07:41:22;17.30;99.90
4962;DHT22;2496;52.468;13.342;2022-07-23T07:43:49;17.40;99.90
4962;DHT22;2496;52.468;13.342;2022-07-23T07:46:16;17.60;99.90
4962;DHT22;2496;52.468;13.342;2022-07-23T07:48:43;17.60;99.90
4962;DHT22;2496;52.468;13.342;2022-07-23T07:51:10;17.60;99.90
4962;DHT22;2496;52.468;13.342;2022-07-23T07:53:37;17.60;99.90
4962;DHT22;2496;52.468;13.342;2022-07-23T07:56:05;17.60;99.90
4962;DHT22;2496;52.468;13.342;2022-07-23T07:58:33;17.70;99.90
4962;DHT22;2496;52.468;13.342;2022-07-23T08:01:00;17.90;99.90
4962;DHT22;2496;52.468;13.342;2022-07-23T08:03:28;17.90;99.90
4962;DHT22;2496;52.468;13.342;2022-07-23T08:05:55;18.10;99.90
4962;DHT22;2496;52.468;13.342;2022-07-23T08:08:22;18.20;99.90
4962;DHT22;2496;52.468;13.342;2022-07-23T08:10:49;18.30;99.90
4962;DHT22;2496;52.468;13.342;2022-07-23T08:13:16;18.60;99.90
4962;DHT22;2496;52.468;13.342;2022-07-23T08:15:44;19.00;99.90
4962;DHT22;2496;52.468;13.342;2022-07-23T08:18:11;19.30;99.90
4962;DHT22;2496;52.468;13.342;2022-07-23T08:20:40;19.30;99.90
4962;DHT22;2496;52.468;13.342;2022-07-23T08:23:08;19.00;99.90
4962;DHT22;2496;52.468;13.342;2022-07-23T08:25:36;18.90;99.90
4962;DHT22;2496;52.468;13.342;2022-07-23T08:28:07;19.00;99.90
4962;DHT22;2496;52.468;13.342;2022-07-23T08:30:35;19.00;99.90
4962;DHT22;2496;52.468;13.342;2022-07-23T08:33:07;19.20;99.90
4962;DHT22;2496;52.468;13.342;2022-07-23T08:35:38;19.20;99.90
4962;DHT22;2496;52.468;13.342;2022-07-23T08:38:06;19.20;99.90
4962;DHT22;2496;52.468;13.342;2022-07-23T08:40:35;19.20;99.90
4962;DHT22;2496;52.468;13.342;2022-07-23T08:43:05;19.20;99.90
4962;DHT22;2496;52.468;13.342;2022-07-23T08:45:37;19.30;99.90
4962;DHT22;2496;52.468;13.342;2022-07-23T08:48:08;19.40;99.90
4962;DHT22;2496;52.468;13.342;2022-07-23T08:50:37;19.60;99.90
4962;DHT22;2496;52.468;13.342;2022-07-23T08:53:07;20.00;99.90
4962;DHT22;2496;52.468;13.342;2022-07-23T08:55:34;20.40;99.90
4962;DHT22;2496;52.468;13.342;2022-07-23T08:58:02;20.80;99.90
4962;DHT22;2496;52.468;13.342;2022-07-23T09:00:29;21.00;99.90
4962;DHT22;2496;52.468;13.342;2022-07-23T09:02:56;21.20;99.90
4962;DHT22;2496;52.468;13.342;2022-07-23T09:05:25;21.20;99.90
4962;DHT22;2496;52.468;13.342;2022-07-23T09:08:10;21.20;99.90
4962;DHT22;2496;52.468;13.342;2022-07-23T09:10:44;21.40;99.90
4962;DHT22;2496;52.468;13.342;2022-07-23T09:13:23;21.30;99.90
4962;DHT22;2496;52.468;13.342;2022-07-23T09:15:52;21.30;99.90
4962;DHT22;2496;52.468;13.342;2022-07-23T09:18:19;21.20;99.90
4962;DHT22;2496;52.468;13.342;2022-07-23T09:20:47;21.10;99.90
4962;DHT22;2496;52.468;13.342;2022-07-23T09:23:15;21.20;99.90
4962;DHT22;2496;52.468;13.342;2022-07-23T09:25:41;21.30;99.90
4962;DHT22;2496;52.468;13.342;2022-07-23T09:28:08;21.40;99.90
4962;DHT22;2496;52.468;13.342;2022-07-23T09:30:35;21.30;99.90
4962;DHT22;2496;52.468;13.342;2022-07-23T09:33:07;20.90;99.90
4962;DHT22;2496;52.468;13.342;2022-07-23T09:35:45;20.70;99.90
4962;DHT22;2496;52.468;13.342;2022-07-23T09:38:14;20.70;99.90
4962;DHT22;2496;52.468;13.342;2022-07-23T09:40:45;20.70;99.90
4962;DHT22;2496;52.468;13.342;2022-07-23T09:43:13;20.70;99.90
4962;DHT22;2496;52.468;13.342;2022-07-23T09:45:52;20.80;99.90
4962;DHT22;2496;52.468;13.342;2022-07-23T09:48:19;21.00;99.90
4962;DHT22;2496;52.468;13.342;2022-07-23T09:50:46;21.30;99.90
4962;DHT22;2496;52.468;13.342;2022-07-23T09:53:23;21.70;99.90
4962;DHT22;2496;52.468;13.342;2022-07-23T09:55:51;21.70;99.90
4962;DHT22;2496;52.468;13.342;2022-07-23T09:58:21;21.70;99.90
4962;DHT22;2496;52.468;13.342;2022-07-23T10:00:52;21.60;99.90
4962;DHT22;2496;52.468;13.342;2022-07-23T10:03:19;21.60;99.90
4962;DHT22;2496;52.468;13.342;2022-07-23T10:05:48;21.80;99.90
4962;DHT22;2496;52.468;13.342;2022-07-23T10:08:18;22.10;99.90
4962;DHT22;2496;52.468;13.342;2022-07-23T10:10:46;22.40;99.90
4962;DHT22;2496;52.468;13.342;2022-07-23T10:13:14;22.50;99.90
4962;DHT22;2496;52.468;13.342;2022-07-23T10:15:58;22.30;99.90
4962;DHT22;2496;52.468;13.342;2022-07-23T10:18:25;22.00;99.90
4962;DHT22;2496;52.468;13.342;2022-07-23T10:20:53;21.70;99.90
4962;DHT22;2496;52.468;13.342;2022-07-23T10:23:27;21.50;99.90
4962;DHT22;2496;52.468;13.342;2022-07-23T10:25:59;21.40;99.90
4962;DHT22;2496;52.468;13.342;2022-07-23T10:28:46;21.40;99.90
4962;DHT22;2496;52.468;13.342;2022-07-23T10:31:34;21.50;99.90
4962;DHT22;2496;52.468;13.342;2022-07-23T10:34:09;21.40;99.90
4962;DHT22;2496;52.468;13.342;2022-07-23T10:36:42;21.30;99.90
4962;DHT22;2496;52.468;13.342;2022-07-23T10:39:15;21.20;99.90
4962;DHT22;2496;52.468;13.342;2022-07-23T10:41:44;21.20;99.90
4962;DHT22;2496;52.468;13.342;2022-07-23T10:44:12;21.20;99.90
4962;DHT22;2496;52.468;13.342;2022-07-23T10:46:57;21.00;99.90
4962;DHT22;2496;52.468;13.342;2022-07-23T10:49:32;20.90;99.90
4962;DHT22;2496;52.468;13.342;2022-07-23T10:52:20;20.90;99.90
4962;DHT22;2496;52.468;13.342;2022-07-23T10:54:53;21.20;99.90
4962;DHT22;2496;52.468;13.342;2022-07-23T10:57:22;21.50;99.90
4962;DHT22;2496;52.468;13.342;2022-07-23T11:00:12;21.70;99.90
4962;DHT22;2496;52.468;13.342;2022-07-23T11:02:42;21.90;99.90
4962;DHT22;2496;52.468;13.342;2022-07-23T11:05:10;21.90;99.90
4962;DHT22;2496;52.468;13.342;2022-07-23T11:08:10;22.10;99.90
4962;DHT22;2496;52.468;13.342;2022-07-23T11:10:43;22.10;99.90
4962;DHT22;2496;52.468;13.342;2022-07-23T11:13:29;22.20;99.90
4962;DHT22;2496;52.468;13.342;2022-07-23T11:16:06;22.40;99.90
4962;DHT22;2496;52.468;13.342;2022-07-23T11:19:03;22.60;99.80
4962;DHT22;2496;52.468;13.342;2022-07-23T11:21:47;22.80;99.40
4962;DHT22;2496;52.468;13.342;2022-07-23T11:24:17;22.80;98.80
4962;DHT22;2496;52.468;13.342;2022-07-23T11:29:52;22.30;99.20
4962;DHT22;2496;52.468;13.342;2022-07-23T11:32:33;22.30;99.30
4962;DHT22;2496;52.468;13.342;2022-07-23T11:35:19;22.40;98.70
4962;DHT22;2496;52.468;13.342;2022-07-23T11:37:46;22.40;98.80
4962;DHT22;2496;52.468;13.342;2022-07-23T11:40:15;22.50;98.70
4962;DHT22;2496;52.468;13.342;2022-07-23T11:42:54;22.40;98.90
4962;DHT22;2496;52.468;13.342;2022-07-23T11:45:22;22.40;98.90
4962;DHT22;2496;52.468;13.342;2022-07-23T11:47:49;22.40;98.50
4962;DHT22;2496;52.468;13.342;2022-07-23T11:50:16;22.40;98.40
4962;DHT22;2496;52.468;13.342;2022-07-23T11:52:48;22.30;98.30
4962;DHT22;2496;52.468;13.342;2022-07-23T11:55:15;22.20;98.30
4962;DHT22;2496;52.468;13.342;2022-07-23T11:57:43;22.40;98.40
4962;DHT22;2496;52.468;13.342;2022-07-23T12:00:14;22.40;98.50
4962;DHT22;2496;52.468;13.342;2022-07-23T12:02:43;22.60;98.40
4962;DHT22;2496;52.468;13.342;2022-07-23T12:05:12;22.70;98.30
4962;DHT22;2496;52.468;13.342;2022-07-23T12:07:40;22.70;97.80
4962;DHT22;2496;52.468;13.342;2022-07-23T12:10:12;22.50;97.90
4962;DHT22;2496;52.468;13.342;2022-07-23T12:12:41;22.30;98.70
4962;DHT22;2496;52.468;13.342;2022-07-23T12:15:09;22.30;98.80
4962;DHT22;2496;52.468;13.342;2022-07-23T12:17:39;22.30;98.50
4962;DHT22;2496;52.468;13.342;2022-07-23T12:20:09;22.40;98.60
4962;DHT22;2496;52.468;13.342;2022-07-23T12:22:38;22.50;98.90
4962;DHT22;2496;52.468;13.342;2022-07-23T12:25:08;22.70;98.40
4962;DHT22;2496;52.468;13.342;2022-07-23T12:27:36;22.90;98.40
4962;DHT22;2496;52.468;13.342;2022-07-23T12:30:19;23.00;98.10
4962;DHT22;2496;52.468;13.342;2022-07-23T12:32:50;23.00;98.00
4962;DHT22;2496;52.468;13.342;2022-07-23T12:35:17;23.10;97.60
4962;DHT22;2496;52.468;13.342;2022-07-23T12:37:46;23.00;97.50
4962;DHT22;2496;52.468;13.342;2022-07-23T12:40:26;23.00;97.50
4962;DHT22;2496;52.468;13.342;2022-07-23T12:42:56;23.30;97.50
4962;DHT22;2496;52.468;13.342;2022-07-23T12:45:24;23.40;97.10
4962;DHT22;2496;52.468;13.342;2022-07-23T12:48:01;23.60;96.90
4962;DHT22;2496;52.468;13.342;2022-07-23T12:50:33;23.90;96.50
4962;DHT22;2496;52.468;13.342;2022-07-23T12:53:05;23.90;95.90
4962;DHT22;2496;52.468;13.342;2022-07-23T12:55:33;24.00;95.80
4962;DHT22;2496;52.468;13.342;2022-07-23T12:58:07;24.00;95.70
4962;DHT22;2496;52.468;13.342;2022-07-23T13:00:58;24.00;95.30
4962;DHT22;2496;52.468;13.342;2022-07-23T13:03:28;24.10;95.70
4962;DHT22;2496;52.468;13.342;2022-07-23T13:05:56;23.90;95.30
4962;DHT22;2496;52.468;13.342;2022-07-23T13:08:24;23.80;95.30
4962;DHT22;2496;52.468;13.342;2022-07-23T13:10:54;23.60;95.50
4962;DHT22;2496;52.468;13.342;2022-07-23T13:13:23;23.40;95.70
4962;DHT22;2496;52.468;13.342;2022-07-23T13:15:51;23.30;96.00
4962;DHT22;2496;52.468;13.342;2022-07-23T13:18:19;23.30;96.00
4962;DHT22;2496;52.468;13.342;2022-07-23T13:20:48;23.40;96.10
4962;DHT22;2496;52.468;13.342;2022-07-23T13:23:15;23.30;96.30
4962;DHT22;2496;52.468;13.342;2022-07-23T13:25:43;23.40;95.60
4962;DHT22;2496;52.468;13.342;2022-07-23T13:28:10;23.40;95.50
4962;DHT22;2496;52.468;13.342;2022-07-23T13:30:38;23.50;95.70
4962;DHT22;2496;52.468;13.342;2022-07-23T13:33:05;23.60;96.10
4962;DHT22;2496;52.468;13.342;2022-07-23T13:35:36;23.70;95.30
4962;DHT22;2496;52.468;13.342;2022-07-23T13:38:06;23.70;95.40
4962;DHT22;2496;52.468;13.342;2022-07-23T13:40:35;23.70;95.30
4962;DHT22;2496;52.468;13.342;2022-07-23T13:43:04;23.70;95.00
4962;DHT22;2496;52.468;13.342;2022-07-23T13:45:31;23.70;94.80
4962;DHT22;2496;52.468;13.342;2022-07-23T13:47:58;23.70;95.00
4962;DHT22;2496;52.468;13.342;2022-07-23T13:50:25;23.80;94.80
4962;DHT22;2496;52.468;13.342;2022-07-23T13:52:52;23.90;94.50
4962;DHT22;2496;52.468;13.342;2022-07-23T13:55:21;23.80;94.00
4962;DHT22;2496;52.468;13.342;2022-07-23T13:57:48;23.80;94.00
4962;DHT22;2496;52.468;13.342;2022-07-23T14:00:16;23.60;94.40
4962;DHT22;2496;52.468;13.342;2022-07-23T14:02:43;23.50;94.60
4962;DHT22;2496;52.468;13.342;2022-07-23T14:05:11;23.60;94.30
4962;DHT22;2496;52.468;13.342;2022-07-23T14:07:39;23.80;93.90
4962;DHT22;2496;52.468;13.342;2022-07-23T14:10:08;24.00;93.50
4962;DHT22;2496;52.468;13.342;2022-07-23T14:12:37;24.10;93.40
4962;DHT22;2496;52.468;13.342;2022-07-23T14:15:05;24.10;93.30
4962;DHT22;2496;52.468;13.342;2022-07-23T14:17:34;24.00;93.40
4962;DHT22;2496;52.468;13.342;2022-07-23T14:20:01;24.00;93.50
4962;DHT22;2496;52.468;13.342;2022-07-23T14:22:28;23.90;93.30
4962;DHT22;2496;52.468;13.342;2022-07-23T14:24:54;23.90;93.20
4962;DHT22;2496;52.468;13.342;2022-07-23T14:27:23;23.80;93.60
4962;DHT22;2496;52.468;13.342;2022-07-23T14:29:52;23.60;93.40
4962;DHT22;2496;52.468;13.342;2022-07-23T14:32:19;23.40;93.20
4962;DHT22;2496;52.468;13.342;2022-07-23T14:34:46;23.30;93.40
4962;DHT22;2496;52.468;13.342;2022-07-23T14:37:13;23.20;93.60
4962;DHT22;2496;52.468;13.342;2022-07-23T14:39:40;23.20;93.60
4962;DHT22;2496;52.468;13.342;2022-07-23T14:42:08;23.20;93.50
4962;DHT22;2496;52.468;13.342;2022-07-23T14:44:35;23.20;93.60
4962;DHT22;2496;52.468;13.342;2022-07-23T14:47:05;23.30;93.70
4962;DHT22;2496;52.468;13.342;2022-07-23T14:49:32;23.40;93.80
4962;DHT22;2496;52.468;13.342;2022-07-23T14:52:00;23.50;93.20
4962;DHT22;2496;52.468;13.342;2022-07-23T14:54:27;23.60;93.10
4962;DHT22;2496;52.468;13.342;2022-07-23T14:56:55;23.70;92.90
4962;DHT22;2496;52.468;13.342;2022-07-23T14:59:22;23.80;92.60
4962;DHT22;2496;52.468;13.342;2022-07-23T15:01:49;23.90;91.70
4962;DHT22;2496;52.468;13.342;2022-07-23T15:04:18;23.90;91.70
4962;DHT22;2496;52.468;13.342;2022-07-23T15:06:45;24.00;91.80
4962;DHT22;2496;52.468;13.342;2022-07-23T15:09:12;24.00;91.90
4962;DHT22;2496;52.468;13.342;2022-07-23T15:11:39;24.10;91.60
4962;DHT22;2496;52.468;13.342;2022-07-23T15:14:07;24.20;91.60
4962;DHT22;2496;52.468;13.342;2022-07-23T15:16:34;24.30;91.40
4962;DHT22;2496;52.468;13.342;2022-07-23T15:19:02;24.30;91.10
4962;DHT22;2496;52.468;13.342;2022-07-23T15:21:30;24.20;90.90
4962;DHT22;2496;52.468;13.342;2022-07-23T15:23:58;24.10;91.00
4962;DHT22;2496;52.468;13.342;2022-07-23T15:26:25;24.10;91.30
4962;DHT22;2496;52.468;13.342;2022-07-23T15:28:52;24.10;91.00
4962;DHT22;2496;52.468;13.342;2022-07-23T15:31:20;24.10;91.20
4962;DHT22;2496;52.468;13.342;2022-07-23T15:33:47;24.10;91.10
4962;DHT22;2496;52.468;13.342;2022-07-23T15:36:14;24.20;91.00
4962;DHT22;2496;52.468;13.342;2022-07-23T15:38:46;24.20;90.80
4962;DHT22;2496;52.468;13.342;2022-07-23T15:41:14;24.30;90.80
4962;DHT22;2496;52.468;13.342;2022-07-23T15:43:49;24.30;90.40
4962;DHT22;2496;52.468;13.342;2022-07-23T15:46:24;24.20;90.50
4962;DHT22;2496;52.468;13.342;2022-07-23T15:48:58;24.00;90.60
4962;DHT22;2496;52.468;13.342;2022-07-23T15:51:30;24.00;90.70
4962;DHT22;2496;52.468;13.342;2022-07-23T15:54:00;24.00;91.20
4962;DHT22;2496;52.468;13.342;2022-07-23T15:56:28;24.00;90.30
4962;DHT22;2496;52.468;13.342;2022-07-23T15:58:57;24.00;89.60
4962;DHT22;2496;52.468;13.342;2022-07-23T16:01:25;23.90;89.70
4962;DHT22;2496;52.468;13.342;2022-07-23T16:03:55;23.90;90.00
4962;DHT22;2496;52.468;13.342;2022-07-23T16:06:25;23.80;89.80
4962;DHT22;2496;52.468;13.342;2022-07-23T16:08:53;23.80;90.20
4962;DHT22;2496;52.468;13.342;2022-07-23T16:11:22;23.90;89.40
4962;DHT22;2496;52.468;13.342;2022-07-23T16:13:49;23.90;89.00
4962;DHT22;2496;52.468;13.342;2022-07-23T16:16:16;23.90;89.90
4962;DHT22;2496;52.468;13.342;2022-07-23T16:18:43;23.80;89.30
4962;DHT22;2496;52.468;13.342;2022-07-23T16:21:13;23.90;89.90
4962;DHT22;2496;52.468;13.342;2022-07-23T16:23:40;23.90;88.60
4962;DHT22;2496;52.468;13.342;2022-07-23T16:26:07;23.90;89.70
4962;DHT22;2496;52.468;13.342;2022-07-23T16:28:35;23.90;89.00
4962;DHT22;2496;52.468;13.342;2022-07-23T16:31:02;23.90;88.90
4962;DHT22;2496;52.468;13.342;2022-07-23T16:33:29;23.90;88.90
4962;DHT22;2496;52.468;13.342;2022-07-23T16:35:56;23.90;88.10